sensor_id;sensor_type;location;lat;lon;timestamp;P1;durP1;ratioP1;P2;durP2;ratioP2
64903;SDS011;51401;48.882;12.598;2023-04-01T00:01:53;1.67;;;0.80;;
64903;SDS011;51401;48.882;12.598;2023-04-01T00:04:19;3.45;;;0.90;;
64903;SDS011;51401;48.882;12.598;2023-04-01T00:06:45;3.00;;;0.90;;
64903;SDS011;51401;48.882;12.598;2023-04-01T00:09:21;2.78;;;1.25;;
64903;SDS011;51401;48.882;12.598;2023-04-01T00:12:26;2.08;;;0.90;;
64903;SDS011;51401;48.882;12.598;2023-04-01T00:14:51;1.15;;;0.70;;
64903;SDS011;51401;48.882;12.598;2023-04-01T00:17:16;3.70;;;0.90;;
64903;SDS011;51401;48.882;12.598;2023-04-01T00:19:42;1.67;;;0.95;;
64903;SDS011;51401;48.882;12.598;2023-04-01T00:22:07;2.30;;;0.70;;
64903;SDS011;51401;48.882;12.598;2023-04-01T00:24:36;3.20;;;0.77;;
64903;SDS011;51401;48.882;12.598;2023-04-01T00:27:02;2.75;;;0.90;;
64903;SDS011;51401;48.882;12.598;2023-04-01T00:29:27;2.05;;;1.05;;
64903;SDS011;51401;48.882;12.598;2023-04-01T00:31:55;1.10;;;0.60;;
64903;SDS011;51401;48.882;12.598;2023-04-01T00:34:20;1.02;;;0.60;;
64903;SDS011;51401;48.882;12.598;2023-04-01T00:36:49;1.63;;;0.65;;
64903;SDS011;51401;48.882;12.598;2023-04-01T00:39:15;1.33;;;0.60;;
64903;SDS011;51401;48.882;12.598;2023-04-01T00:41:41;1.15;;;0.80;;
64903;SDS011;51401;48.882;12.598;2023-04-01T00:47:02;2.55;;;0.80;;
64903;SDS011;51401;48.882;12.598;2023-04-01T00:49:31;2.08;;;0.60;;
64903;SDS011;51401;48.882;12.598;2023-04-01T00:52:01;1.20;;;0.55;;
64903;SDS011;51401;48.882;12.598;2023-04-01T00:54:29;2.17;;;1.00;;
64903;SDS011;51401;48.882;12.598;2023-04-01T00:56:59;1.63;;;0.60;;
64903;SDS011;51401;48.882;12.598;2023-04-01T00:59:31;2.22;;;0.60;;
64903;SDS011;51401;48.882;12.598;2023-04-01T01:02:01;0.98;;;0.50;;
64903;SDS011;51401;48.882;12.598;2023-04-01T01:04:29;1.25;;;0.50;;
64903;SDS011;51401;48.882;12.598;2023-04-01T01:09:41;0.52;;;0.50;;
64903;SDS011;51401;48.882;12.598;2023-04-01T01:12:20;2.33;;;0.90;;
64903;SDS011;51401;48.882;12.598;2023-04-01T01:23:46;1.38;;;0.40;;
64903;SDS011;51401;48.882;12.598;2023-04-01T01:29:31;2.10;;;0.60;;
64903;SDS011;51401;48.882;12.598;2023-04-01T01:37:33;1.55;;;0.60;;
64903;SDS011;51401;48.882;12.598;2023-04-01T01:40:01;0.57;;;0.40;;
64903;SDS011;51401;48.882;12.598;2023-04-01T01:42:30;0.85;;;0.32;;
64903;SDS011;51401;48.882;12.598;2023-04-01T01:44:58;0.85;;;0.45;;
64903;SDS011;51401;48.882;12.598;2023-04-01T01:47:25;1.23;;;0.47;;
64903;SDS011;51401;48.882;12.598;2023-04-01T01:49:52;0.80;;;0.52;;
64903;SDS011;51401;48.882;12.598;2023-04-01T01:52:19;1.13;;;0.40;;
64903;SDS011;51401;48.882;12.598;2023-04-01T01:54:51;1.75;;;0.52;;
64903;SDS011;51401;48.882;12.598;2023-04-01T01:57:19;0.63;;;0.50;;
64903;SDS011;51401;48.882;12.598;2023-04-01T01:59:48;1.85;;;0.40;;
64903;SDS011;51401;48.882;12.598;2023-04-01T02:02:16;0.52;;;0.38;;
64903;SDS011;51401;48.882;12.598;2023-04-01T02:04:43;2.63;;;0.80;;
64903;SDS011;51401;48.882;12.598;2023-04-01T02:07:15;2.63;;;0.80;;
64903;SDS011;51401;48.882;12.598;2023-04-01T02:09:50;1.15;;;0.50;;
64903;SDS011;51401;48.882;12.598;2023-04-01T02:12:16;1.50;;;0.68;;
64903;SDS011;51401;48.882;12.598;2023-04-01T02:17:21;0.50;;;0.40;;
64903;SDS011;51401;48.882;12.598;2023-04-01T02:19:56;0.68;;;0.43;;
64903;SDS011;51401;48.882;12.598;2023-04-01T02:25:52;1.10;;;0.60;;
64903;SDS011;51401;48.882;12.598;2023-04-01T02:28:18;0.93;;;0.57;;
64903;SDS011;51401;48.882;12.598;2023-04-01T02:30:45;0.50;;;0.47;;
64903;SDS011;51401;48.882;12.598;2023-04-01T02:33:12;1.88;;;0.40;;
64903;SDS011;51401;48.882;12.598;2023-04-01T02:35:38;0.85;;;0.40;;
64903;SDS011;51401;48.882;12.598;2023-04-01T02:38:17;0.47;;;0.40;;
64903;SDS011;51401;48.882;12.598;2023-04-01T02:41:00;0.85;;;0.50;;
64903;SDS011;51401;48.882;12.598;2023-04-01T02:43:28;0.88;;;0.43;;
64903;SDS011;51401;48.882;12.598;2023-04-01T02:46:08;1.45;;;0.50;;
64903;SDS011;51401;48.882;12.598;2023-04-01T02:48:34;0.52;;;0.40;;
64903;SDS011;51401;48.882;12.598;2023-04-01T02:51:41;1.02;;;0.57;;
64903;SDS011;51401;48.882;12.598;2023-04-01T02:53:54;0.60;;;0.40;;
64903;SDS011;51401;48.882;12.598;2023-04-01T02:59:43;0.52;;;0.40;;
64903;SDS011;51401;48.882;12.598;2023-04-01T03:02:08;3.03;;;0.68;;
64903;SDS011;51401;48.882;12.598;2023-04-01T03:04:33;0.32;;;0.32;;
64903;SDS011;51401;48.882;12.598;2023-04-01T03:06:59;1.20;;;0.63;;
64903;SDS011;51401;48.882;12.598;2023-04-01T03:09:24;1.02;;;0.70;;
64903;SDS011;51401;48.882;12.598;2023-04-01T03:11:49;1.58;;;0.65;;
64903;SDS011;51401;48.882;12.598;2023-04-01T03:14:15;1.48;;;0.65;;
64903;SDS011;51401;48.882;12.598;2023-04-01T03:16:40;1.45;;;0.65;;
64903;SDS011;51401;48.882;12.598;2023-04-01T03:19:05;1.85;;;0.60;;
64903;SDS011;51401;48.882;12.598;2023-04-01T03:21:39;2.03;;;0.38;;
64903;SDS011;51401;48.882;12.598;2023-04-01T03:24:08;1.38;;;0.50;;
64903;SDS011;51401;48.882;12.598;2023-04-01T03:26:39;2.58;;;0.73;;
64903;SDS011;51401;48.882;12.598;2023-04-01T03:29:05;1.25;;;0.70;;
64903;SDS011;51401;48.882;12.598;2023-04-01T03:31:33;0.80;;;0.40;;
64903;SDS011;51401;48.882;12.598;2023-04-01T03:34:24;0.80;;;0.40;;
64903;SDS011;51401;48.882;12.598;2023-04-01T03:36:50;0.85;;;0.60;;
64903;SDS011;51401;48.882;12.598;2023-04-01T03:39:16;1.48;;;0.60;;
64903;SDS011;51401;48.882;12.598;2023-04-01T03:41:43;0.82;;;0.50;;
64903;SDS011;51401;48.882;12.598;2023-04-01T03:44:09;2.90;;;0.60;;
64903;SDS011;51401;48.882;12.598;2023-04-01T03:46:35;1.65;;;0.50;;
64903;SDS011;51401;48.882;12.598;2023-04-01T03:49:00;1.08;;;0.50;;
64903;SDS011;51401;48.882;12.598;2023-04-01T03:51:26;0.90;;;0.68;;
64903;SDS011;51401;48.882;12.598;2023-04-01T03:53:51;1.70;;;0.70;;
64903;SDS011;51401;48.882;12.598;2023-04-01T03:56:16;1.88;;;0.63;;
64903;SDS011;51401;48.882;12.598;2023-04-01T03:58:42;1.95;;;0.50;;
64903;SDS011;51401;48.882;12.598;2023-04-01T04:01:14;1.45;;;0.82;;
64903;SDS011;51401;48.882;12.598;2023-04-01T04:03:45;1.40;;;0.57;;
64903;SDS011;51401;48.882;12.598;2023-04-01T04:06:11;0.93;;;0.63;;
64903;SDS011;51401;48.882;12.598;2023-04-01T04:08:38;1.58;;;0.80;;
64903;SDS011;51401;48.882;12.598;2023-04-01T04:11:03;0.52;;;0.45;;
64903;SDS011;51401;48.882;12.598;2023-04-01T04:13:29;0.73;;;0.60;;
64903;SDS011;51401;48.882;12.598;2023-04-01T04:15:57;1.83;;;0.60;;
64903;SDS011;51401;48.882;12.598;2023-04-01T04:18:23;1.75;;;0.60;;
64903;SDS011;51401;48.882;12.598;2023-04-01T04:20:54;4.50;;;1.77;;
64903;SDS011;51401;48.882;12.598;2023-04-01T04:23:58;1.92;;;0.93;;
64903;SDS011;51401;48.882;12.598;2023-04-01T04:26:24;1.50;;;0.60;;
64903;SDS011;51401;48.882;12.598;2023-04-01T04:28:50;0.30;;;0.30;;
64903;SDS011;51401;48.882;12.598;2023-04-01T04:31:19;0.90;;;0.47;;
64903;SDS011;51401;48.882;12.598;2023-04-01T04:37:21;1.45;;;0.85;;
64903;SDS011;51401;48.882;12.598;2023-04-01T04:39:46;0.85;;;0.60;;
64903;SDS011;51401;48.882;12.598;2023-04-01T04:42:11;1.27;;;0.50;;
64903;SDS011;51401;48.882;12.598;2023-04-01T04:44:36;2.00;;;0.47;;
64903;SDS011;51401;48.882;12.598;2023-04-01T04:47:02;0.77;;;0.47;;
64903;SDS011;51401;48.882;12.598;2023-04-01T04:49:27;1.45;;;0.40;;
64903;SDS011;51401;48.882;12.598;2023-04-01T04:52:14;1.13;;;0.50;;
64903;SDS011;51401;48.882;12.598;2023-04-01T04:54:38;2.40;;;0.52;;
64903;SDS011;51401;48.882;12.598;2023-04-01T04:57:03;1.17;;;0.50;;
64903;SDS011;51401;48.882;12.598;2023-04-01T04:59:29;0.63;;;0.50;;
64903;SDS011;51401;48.882;12.598;2023-04-01T05:01:56;0.65;;;0.40;;
64903;SDS011;51401;48.882;12.598;2023-04-01T05:04:21;0.55;;;0.50;;
64903;SDS011;51401;48.882;12.598;2023-04-01T05:06:47;0.30;;;0.30;;
64903;SDS011;51401;48.882;12.598;2023-04-01T05:09:12;0.57;;;0.43;;
64903;SDS011;51401;48.882;12.598;2023-04-01T05:11:37;0.82;;;0.38;;
64903;SDS011;51401;48.882;12.598;2023-04-01T05:14:02;0.40;;;0.40;;
64903;SDS011;51401;48.882;12.598;2023-04-01T05:16:28;1.13;;;0.45;;
64903;SDS011;51401;48.882;12.598;2023-04-01T05:18:53;0.63;;;0.47;;
64903;SDS011;51401;48.882;12.598;2023-04-01T05:21:18;0.32;;;0.32;;
64903;SDS011;51401;48.882;12.598;2023-04-01T05:23:44;0.75;;;0.50;;
64903;SDS011;51401;48.882;12.598;2023-04-01T05:26:13;0.50;;;0.40;;
64903;SDS011;51401;48.882;12.598;2023-04-01T05:28:39;0.50;;;0.50;;
64903;SDS011;51401;48.882;12.598;2023-04-01T05:31:05;1.40;;;0.40;;
64903;SDS011;51401;48.882;12.598;2023-04-01T05:33:32;1.10;;;0.50;;
64903;SDS011;51401;48.882;12.598;2023-04-01T05:36:05;1.75;;;0.70;;
64903;SDS011;51401;48.882;12.598;2023-04-01T05:38:31;1.35;;;0.55;;
64903;SDS011;51401;48.882;12.598;2023-04-01T05:41:00;5.47;;;0.60;;
64903;SDS011;51401;48.882;12.598;2023-04-01T05:43:26;0.57;;;0.35;;
64903;SDS011;51401;48.882;12.598;2023-04-01T05:45:51;0.40;;;0.40;;
64903;SDS011;51401;48.882;12.598;2023-04-01T05:48:16;0.50;;;0.40;;
64903;SDS011;51401;48.882;12.598;2023-04-01T05:50:42;0.50;;;0.50;;
64903;SDS011;51401;48.882;12.598;2023-04-01T05:53:07;0.88;;;0.63;;
64903;SDS011;51401;48.882;12.598;2023-04-01T05:55:34;0.65;;;0.43;;
64903;SDS011;51401;48.882;12.598;2023-04-01T05:58:00;1.48;;;0.60;;
64903;SDS011;51401;48.882;12.598;2023-04-01T06:00:25;1.55;;;0.88;;
64903;SDS011;51401;48.882;12.598;2023-04-01T06:02:50;0.70;;;0.47;;
64903;SDS011;51401;48.882;12.598;2023-04-01T06:05:18;0.50;;;0.40;;
64903;SDS011;51401;48.882;12.598;2023-04-01T06:07:48;0.77;;;0.43;;
64903;SDS011;51401;48.882;12.598;2023-04-01T06:10:18;0.30;;;0.30;;
64903;SDS011;51401;48.882;12.598;2023-04-01T06:24:08;1.25;;;0.70;;
64903;SDS011;51401;48.882;12.598;2023-04-01T06:32:30;1.15;;;0.70;;
64903;SDS011;51401;48.882;12.598;2023-04-01T06:43:38;1.10;;;0.90;;
64903;SDS011;51401;48.882;12.598;2023-04-01T06:46:12;1.00;;;0.60;;
64903;SDS011;51401;48.882;12.598;2023-04-01T06:54:38;1.02;;;0.45;;
64903;SDS011;51401;48.882;12.598;2023-04-01T06:57:17;1.10;;;0.53;;
64903;SDS011;51401;48.882;12.598;2023-04-01T06:59:44;1.85;;;0.68;;
64903;SDS011;51401;48.882;12.598;2023-04-01T07:04:35;0.80;;;0.40;;
64903;SDS011;51401;48.882;12.598;2023-04-01T07:07:08;1.00;;;0.60;;
64903;SDS011;51401;48.882;12.598;2023-04-01T07:09:43;1.63;;;0.82;;
64903;SDS011;51401;48.882;12.598;2023-04-01T07:12:18;1.05;;;0.90;;
64903;SDS011;51401;48.882;12.598;2023-04-01T07:15:11;0.45;;;0.40;;
64903;SDS011;51401;48.882;12.598;2023-04-01T07:17:42;0.80;;;0.50;;
64903;SDS011;51401;48.882;12.598;2023-04-01T07:20:29;1.90;;;0.80;;
64903;SDS011;51401;48.882;12.598;2023-04-01T07:23:00;1.00;;;0.77;;
64903;SDS011;51401;48.882;12.598;2023-04-01T07:28:02;0.82;;;0.60;;
64903;SDS011;51401;48.882;12.598;2023-04-01T07:30:42;0.95;;;0.75;;
64903;SDS011;51401;48.882;12.598;2023-04-01T07:33:16;1.92;;;1.00;;
64903;SDS011;51401;48.882;12.598;2023-04-01T07:35:51;0.43;;;0.43;;
64903;SDS011;51401;48.882;12.598;2023-04-01T07:38:27;0.68;;;0.63;;
64903;SDS011;51401;48.882;12.598;2023-04-01T07:49:02;1.92;;;0.93;;
64903;SDS011;51401;48.882;12.598;2023-04-01T07:54:43;1.65;;;0.70;;
64903;SDS011;51401;48.882;12.598;2023-04-01T07:57:35;0.95;;;0.60;;
64903;SDS011;51401;48.882;12.598;2023-04-01T08:00:23;1.42;;;0.43;;
64903;SDS011;51401;48.882;12.598;2023-04-01T08:03:15;0.50;;;0.50;;
64903;SDS011;51401;48.882;12.598;2023-04-01T08:05:53;0.38;;;0.35;;
64903;SDS011;51401;48.882;12.598;2023-04-01T08:25:02;0.47;;;0.47;;
64903;SDS011;51401;48.882;12.598;2023-04-01T08:27:46;1.05;;;0.43;;
64903;SDS011;51401;48.882;12.598;2023-04-01T08:30:24;0.88;;;0.40;;
64903;SDS011;51401;48.882;12.598;2023-04-01T08:32:55;1.35;;;0.47;;
64903;SDS011;51401;48.882;12.598;2023-04-01T08:35:31;1.27;;;0.40;;
64903;SDS011;51401;48.882;12.598;2023-04-01T08:38:06;0.55;;;0.50;;
64903;SDS011;51401;48.882;12.598;2023-04-01T09:19:03;1.38;;;0.70;;
64903;SDS011;51401;48.882;12.598;2023-04-01T09:54:53;1.60;;;0.90;;
64903;SDS011;51401;48.882;12.598;2023-04-01T09:57:32;6.50;;;5.18;;
64903;SDS011;51401;48.882;12.598;2023-04-01T10:00:39;2.28;;;1.08;;
64903;SDS011;51401;48.882;12.598;2023-04-01T10:06:41;2.20;;;0.98;;
64903;SDS011;51401;48.882;12.598;2023-04-01T10:23:18;2.00;;;0.57;;
64903;SDS011;51401;48.882;12.598;2023-04-01T10:48:31;1.30;;;1.10;;
64903;SDS011;51401;48.882;12.598;2023-04-01T10:51:22;0.80;;;0.50;;
64903;SDS011;51401;48.882;12.598;2023-04-01T10:57:14;0.82;;;0.60;;
64903;SDS011;51401;48.882;12.598;2023-04-01T11:02:57;1.65;;;1.10;;
64903;SDS011;51401;48.882;12.598;2023-04-01T11:13:59;0.85;;;0.60;;
64903;SDS011;51401;48.882;12.598;2023-04-01T11:17:00;1.70;;;0.80;;
64903;SDS011;51401;48.882;12.598;2023-04-01T11:20:04;1.30;;;0.40;;
64903;SDS011;51401;48.882;12.598;2023-04-01T11:22:58;0.55;;;0.45;;
64903;SDS011;51401;48.882;12.598;2023-04-01T11:30:57;1.15;;;0.75;;
64903;SDS011;51401;48.882;12.598;2023-04-01T11:36:25;1.02;;;0.60;;
64903;SDS011;51401;48.882;12.598;2023-04-01T11:44:24;1.20;;;0.60;;
64903;SDS011;51401;48.882;12.598;2023-04-01T12:00:24;2.10;;;0.88;;
64903;SDS011;51401;48.882;12.598;2023-04-01T12:05:58;1.48;;;0.90;;
64903;SDS011;51401;48.882;12.598;2023-04-01T12:14:54;1.05;;;0.68;;
64903;SDS011;51401;48.882;12.598;2023-04-01T12:22:56;0.93;;;0.52;;
64903;SDS011;51401;48.882;12.598;2023-04-01T12:31:01;0.68;;;0.50;;
64903;SDS011;51401;48.882;12.598;2023-04-01T12:47:38;1.77;;;0.95;;
64903;SDS011;51401;48.882;12.598;2023-04-01T12:56:09;0.57;;;0.50;;
64903;SDS011;51401;48.882;12.598;2023-04-01T12:58:55;0.63;;;0.50;;
64903;SDS011;51401;48.882;12.598;2023-04-01T13:02:03;0.63;;;0.40;;
64903;SDS011;51401;48.882;12.598;2023-04-01T13:18:16;1.77;;;1.45;;
64903;SDS011;51401;48.882;12.598;2023-04-01T13:21:08;1.48;;;1.20;;
64903;SDS011;51401;48.882;12.598;2023-04-01T13:27:02;1.98;;;1.50;;
64903;SDS011;51401;48.882;12.598;2023-04-01T13:29:38;1.17;;;0.70;;
64903;SDS011;51401;48.882;12.598;2023-04-01T13:35:08;1.02;;;0.73;;
64903;SDS011;51401;48.882;12.598;2023-04-01T13:40:28;0.98;;;0.80;;
64903;SDS011;51401;48.882;12.598;2023-04-01T13:53:47;1.40;;;0.77;;
64903;SDS011;51401;48.882;12.598;2023-04-01T14:02:02;2.13;;;0.50;;
64903;SDS011;51401;48.882;12.598;2023-04-01T14:26:29;1.52;;;1.23;;
64903;SDS011;51401;48.882;12.598;2023-04-01T14:31:39;1.95;;;1.05;;
64903;SDS011;51401;48.882;12.598;2023-04-01T14:34:21;1.20;;;0.90;;
64903;SDS011;51401;48.882;12.598;2023-04-01T14:50:23;2.50;;;1.45;;
64903;SDS011;51401;48.882;12.598;2023-04-01T14:58:13;2.35;;;1.45;;
64903;SDS011;51401;48.882;12.598;2023-04-01T15:03:40;5.93;;;2.78;;
64903;SDS011;51401;48.882;12.598;2023-04-01T15:11:48;1.40;;;1.30;;
64903;SDS011;51401;48.882;12.598;2023-04-01T15:14:28;2.42;;;1.50;;
64903;SDS011;51401;48.882;12.598;2023-04-01T15:22:39;3.58;;;2.13;;
64903;SDS011;51401;48.882;12.598;2023-04-01T15:25:19;2.15;;;1.83;;
64903;SDS011;51401;48.882;12.598;2023-04-01T15:27:56;1.75;;;1.05;;
64903;SDS011;51401;48.882;12.598;2023-04-01T15:36:20;3.22;;;1.80;;
64903;SDS011;51401;48.882;12.598;2023-04-01T15:39:13;2.33;;;1.52;;
64903;SDS011;51401;48.882;12.598;2023-04-01T15:41:50;8.60;;;4.55;;
64903;SDS011;51401;48.882;12.598;2023-04-01T15:52:49;1.70;;;1.48;;
64903;SDS011;51401;48.882;12.598;2023-04-01T15:55:37;1.98;;;1.00;;
64903;SDS011;51401;48.882;12.598;2023-04-01T16:11:41;6.63;;;4.13;;
64903;SDS011;51401;48.882;12.598;2023-04-01T16:17:18;7.45;;;4.82;;
64903;SDS011;51401;48.882;12.598;2023-04-01T16:20:17;5.50;;;3.30;;
64903;SDS011;51401;48.882;12.598;2023-04-01T16:23:04;2.13;;;1.92;;
64903;SDS011;51401;48.882;12.598;2023-04-01T16:25:44;2.47;;;1.48;;
64903;SDS011;51401;48.882;12.598;2023-04-01T16:28:30;2.67;;;2.05;;
64903;SDS011;51401;48.882;12.598;2023-04-01T16:33:57;2.85;;;2.30;;
64903;SDS011;51401;48.882;12.598;2023-04-01T16:36:28;1.70;;;1.40;;
64903;SDS011;51401;48.882;12.598;2023-04-01T16:47:34;29.67;;;17.23;;
64903;SDS011;51401;48.882;12.598;2023-04-01T16:55:25;21.60;;;14.82;;
64903;SDS011;51401;48.882;12.598;2023-04-01T16:58:06;15.77;;;12.30;;
64903;SDS011;51401;48.882;12.598;2023-04-01T17:01:07;6.13;;;4.43;;
64903;SDS011;51401;48.882;12.598;2023-04-01T17:03:33;7.15;;;4.55;;
64903;SDS011;51401;48.882;12.598;2023-04-01T17:12:00;7.10;;;3.75;;
64903;SDS011;51401;48.882;12.598;2023-04-01T17:14:59;5.57;;;4.35;;
64903;SDS011;51401;48.882;12.598;2023-04-01T17:17:53;4.93;;;3.53;;
64903;SDS011;51401;48.882;12.598;2023-04-01T17:20:59;3.30;;;2.58;;
64903;SDS011;51401;48.882;12.598;2023-04-01T17:23:43;2.88;;;2.40;;
64903;SDS011;51401;48.882;12.598;2023-04-01T17:26:47;1.85;;;1.63;;
64903;SDS011;51401;48.882;12.598;2023-04-01T17:32:07;2.55;;;2.22;;
64903;SDS011;51401;48.882;12.598;2023-04-01T17:37:28;2.90;;;2.55;;
64903;SDS011;51401;48.882;12.598;2023-04-01T17:45:20;4.22;;;2.90;;
64903;SDS011;51401;48.882;12.598;2023-04-01T17:56:23;3.20;;;2.90;;
64903;SDS011;51401;48.882;12.598;2023-04-01T18:12:56;6.00;;;1.98;;
64903;SDS011;51401;48.882;12.598;2023-04-01T18:26:31;4.82;;;4.07;;
64903;SDS011;51401;48.882;12.598;2023-04-01T18:28:59;2.72;;;2.50;;
64903;SDS011;51401;48.882;12.598;2023-04-01T18:31:37;3.63;;;3.05;;
64903;SDS011;51401;48.882;12.598;2023-04-01T18:36:52;3.20;;;1.80;;
64903;SDS011;51401;48.882;12.598;2023-04-01T18:39:40;3.75;;;2.65;;
64903;SDS011;51401;48.882;12.598;2023-04-01T18:50:33;2.92;;;2.63;;
64903;SDS011;51401;48.882;12.598;2023-04-01T18:56:11;5.40;;;3.17;;
64903;SDS011;51401;48.882;12.598;2023-04-01T19:01:26;2.60;;;1.73;;
64903;SDS011;51401;48.882;12.598;2023-04-01T19:04:23;5.82;;;3.05;;
64903;SDS011;51401;48.882;12.598;2023-04-01T19:06:56;4.57;;;3.42;;
64903;SDS011;51401;48.882;12.598;2023-04-01T19:20:19;6.28;;;3.85;;
64903;SDS011;51401;48.882;12.598;2023-04-01T19:23:12;4.35;;;3.33;;
64903;SDS011;51401;48.882;12.598;2023-04-01T19:25:51;4.65;;;2.65;;
64903;SDS011;51401;48.882;12.598;2023-04-01T19:28:26;4.35;;;2.95;;
64903;SDS011;51401;48.882;12.598;2023-04-01T19:34:14;4.72;;;4.10;;
64903;SDS011;51401;48.882;12.598;2023-04-01T19:36:56;6.85;;;4.63;;
64903;SDS011;51401;48.882;12.598;2023-04-01T19:39:34;6.32;;;4.43;;
64903;SDS011;51401;48.882;12.598;2023-04-01T19:42:22;5.88;;;5.07;;
64903;SDS011;51401;48.882;12.598;2023-04-01T19:48:03;6.60;;;4.80;;
64903;SDS011;51401;48.882;12.598;2023-04-01T19:50:42;3.25;;;2.88;;
64903;SDS011;51401;48.882;12.598;2023-04-01T19:53:14;4.72;;;3.70;;
64903;SDS011;51401;48.882;12.598;2023-04-01T19:55:52;3.28;;;2.33;;
64903;SDS011;51401;48.882;12.598;2023-04-01T20:01:14;3.55;;;2.40;;
64903;SDS011;51401;48.882;12.598;2023-04-01T20:03:51;1.42;;;1.25;;
64903;SDS011;51401;48.882;12.598;2023-04-01T20:09:04;3.75;;;2.20;;
64903;SDS011;51401;48.882;12.598;2023-04-01T20:11:49;4.68;;;3.15;;
64903;SDS011;51401;48.882;12.598;2023-04-01T20:17:24;6.20;;;3.67;;
64903;SDS011;51401;48.882;12.598;2023-04-01T20:25:17;1.50;;;1.10;;
64903;SDS011;51401;48.882;12.598;2023-04-01T20:36:16;2.28;;;1.67;;
64903;SDS011;51401;48.882;12.598;2023-04-01T20:39:03;2.13;;;1.55;;
64903;SDS011;51401;48.882;12.598;2023-04-01T20:44:26;1.90;;;1.40;;
64903;SDS011;51401;48.882;12.598;2023-04-01T20:47:17;1.85;;;1.55;;
64903;SDS011;51401;48.882;12.598;2023-04-01T20:52:42;1.50;;;1.05;;
64903;SDS011;51401;48.882;12.598;2023-04-01T20:58:06;2.00;;;1.15;;
64903;SDS011;51401;48.882;12.598;2023-04-01T21:01:13;1.30;;;1.00;;
64903;SDS011;51401;48.882;12.598;2023-04-01T21:06:32;0.95;;;0.80;;
64903;SDS011;51401;48.882;12.598;2023-04-01T21:12:19;1.48;;;0.90;;
64903;SDS011;51401;48.882;12.598;2023-04-01T21:22:36;1.15;;;0.82;;
64903;SDS011;51401;48.882;12.598;2023-04-01T21:44:32;2.17;;;1.15;;
64903;SDS011;51401;48.882;12.598;2023-04-01T21:55:53;1.52;;;1.10;;
64903;SDS011;51401;48.882;12.598;2023-04-01T22:04:28;9.35;;;5.15;;
64903;SDS011;51401;48.882;12.598;2023-04-01T22:07:25;7.13;;;5.32;;
64903;SDS011;51401;48.882;12.598;2023-04-01T22:10:05;9.50;;;4.70;;
64903;SDS011;51401;48.882;12.598;2023-04-01T22:21:00;5.30;;;3.17;;
64903;SDS011;51401;48.882;12.598;2023-04-01T22:29:37;3.65;;;2.22;;
64903;SDS011;51401;48.882;12.598;2023-04-01T22:37:41;5.03;;;2.75;;
64903;SDS011;51401;48.882;12.598;2023-04-01T22:40:25;6.15;;;2.90;;
64903;SDS011;51401;48.882;12.598;2023-04-01T22:43:04;4.45;;;2.03;;
64903;SDS011;51401;48.882;12.598;2023-04-01T22:48:18;7.18;;;3.38;;
64903;SDS011;51401;48.882;12.598;2023-04-01T22:53:49;4.45;;;1.85;;
64903;SDS011;51401;48.882;12.598;2023-04-01T22:56:20;2.53;;;1.80;;
64903;SDS011;51401;48.882;12.598;2023-04-01T23:01:40;2.47;;;1.55;;
64903;SDS011;51401;48.882;12.598;2023-04-01T23:04:09;2.65;;;1.50;;
64903;SDS011;51401;48.882;12.598;2023-04-01T23:06:42;1.58;;;0.80;;
64903;SDS011;51401;48.882;12.598;2023-04-01T23:09:15;2.05;;;1.30;;
64903;SDS011;51401;48.882;12.598;2023-04-01T23:16:51;3.15;;;2.28;;
64903;SDS011;51401;48.882;12.598;2023-04-01T23:19:24;7.10;;;2.97;;
64903;SDS011;51401;48.882;12.598;2023-04-01T23:24:55;3.30;;;1.75;;
64903;SDS011;51401;48.882;12.598;2023-04-01T23:27:40;2.00;;;1.45;;
64903;SDS011;51401;48.882;12.598;2023-04-01T23:33:11;4.32;;;2.00;;
64903;SDS011;51401;48.882;12.598;2023-04-01T23:35:50;2.65;;;1.60;;
64903;SDS011;51401;48.882;12.598;2023-04-01T23:38:18;2.08;;;1.58;;
64903;SDS011;51401;48.882;12.598;2023-04-01T23:40:49;3.08;;;1.42;;
64903;SDS011;51401;48.882;12.598;2023-04-01T23:43:26;1.52;;;1.00;;
64903;SDS011;51401;48.882;12.598;2023-04-01T23:45:56;3.67;;;1.80;;
64903;SDS011;51401;48.882;12.598;2023-04-01T23:48:29;1.85;;;1.02;;
64903;SDS011;51401;48.882;12.598;2023-04-01T23:50:57;4.45;;;1.50;;
64903;SDS011;51401;48.882;12.598;2023-04-01T23:53:25;2.72;;;1.30;;
64903;SDS011;51401;48.882;12.598;2023-04-01T23:55:53;2.72;;;0.90;;
